Time;durP1;ratioP1;P1;durP2;ratioP2;P2;SDS_P1;SDS_P2;PMS_P1;PMS_P2;Temp;Humidity;BMP_temperature;BMP_pressure;BME280_temperature;BME280_humidity;BME280_pressure;Samples;Min_cycle;Max_cycle;Signal;HPM_P1;HPM_P2
2023/01/31 00:02:10;;;;;;;1.65;0.90;;;18.70;53.50;;;;;;5019664;28;20026;-62
2023/01/31 00:04:35;;;;;;;1.17;0.82;;;18.70;53.40;;;;;;5018808;28;20056;-63
2023/01/31 00:07:01;;;;;;;2.42;1.08;;;18.70;53.50;;;;;;5020457;28;20501;-63
2023/01/31 00:09:26;;;;;;;1.70;0.90;;;18.70;53.50;;;;;;5021903;28;20487;-63
2023/01/31 00:11:52;;;;;;;1.50;0.88;;;18.70;53.50;;;;;;5019013;28;20361;-63
2023/01/31 00:14:19;;;;;;;1.55;0.90;;;18.60;53.40;;;;;;5020319;28;20036;-63
2023/01/31 00:16:45;;;;;;;1.35;0.85;;;18.60;53.40;;;;;;5017423;28;20030;-63
2023/01/31 00:19:10;;;;;;;1.58;0.80;;;18.60;53.40;;;;;;5019702;28;20028;-63
2023/01/31 00:21:36;;;;;;;1.63;0.90;;;18.60;53.40;;;;;;5019941;28;20037;-63
2023/01/31 00:24:04;;;;;;;1.52;0.93;;;18.60;53.40;;;;;;5018758;28;20037;-63
2023/01/31 00:26:32;;;;;;;1.40;0.80;;;18.60;53.40;;;;;;5018532;28;20075;-63
2023/01/31 00:29:00;;;;;;;1.42;0.90;;;18.60;53.40;;;;;;5017712;28;20117;-63
2023/01/31 00:31:28;;;;;;;1.20;0.80;;;18.60;53.40;;;;;;5018346;28;20033;-64
2023/01/31 00:33:54;;;;;;;1.88;1.00;;;18.60;53.40;;;;;;5017008;28;20030;-63
2023/01/31 00:36:23;;;;;;;1.80;1.02;;;18.60;53.40;;;;;;5033583;28;20041;-64
2023/01/31 00:38:56;;;;;;;1.90;1.00;;;18.60;53.40;;;;;;5016250;28;20026;-64
2023/01/31 00:41:23;;;;;;;1.63;0.90;;;18.60;53.30;;;;;;5021263;28;20074;-63
2023/01/31 00:43:49;;;;;;;1.73;0.93;;;18.60;53.30;;;;;;5018748;28;20036;-63
2023/01/31 00:46:15;;;;;;;1.40;0.80;;;18.60;53.40;;;;;;5020239;28;20030;-63
2023/01/31 00:48:41;;;;;;;1.48;0.85;;;18.60;53.30;;;;;;5019085;28;20112;-63
2023/01/31 00:51:07;;;;;;;1.52;0.90;;;18.60;53.30;;;;;;5018050;28;20097;-63
2023/01/31 00:53:33;;;;;;;1.42;0.90;;;18.60;53.30;;;;;;5017674;28;20029;-63
2023/01/31 00:56:10;;;;;;;2.58;1.13;;;18.60;53.30;;;;;;5018789;28;20034;-63
2023/01/31 00:58:38;;;;;;;1.40;0.95;;;18.60;53.30;;;;;;5019314;28;20062;-63
2023/01/31 01:01:09;;;;;;;1.35;0.90;;;18.60;53.30;;;;;;5019877;28;20026;-63
2023/01/31 01:03:35;;;;;;;1.50;0.90;;;18.60;53.30;;;;;;5020354;28;20045;-64
2023/01/31 01:06:01;;;;;;;1.73;0.90;;;18.60;53.30;;;;;;5014599;28;20088;-64
2023/01/31 01:08:28;;;;;;;1.05;0.77;;;18.60;53.30;;;;;;5019830;28;20449;-64
2023/01/31 01:10:54;;;;;;;1.42;0.90;;;18.60;53.30;;;;;;5020513;28;20207;-63
2023/01/31 01:13:19;;;;;;;1.60;0.70;;;18.60;53.30;;;;;;5019728;28;20189;-64
2023/01/31 01:15:45;;;;;;;1.25;0.80;;;18.60;53.20;;;;;;5019332;28;20033;-64
2023/01/31 01:18:10;;;;;;;1.52;0.80;;;18.60;53.20;;;;;;5017415;28;20473;-64
2023/01/31 01:20:36;;;;;;;1.08;0.73;;;18.60;53.20;;;;;;5018597;28;20034;-63
2023/01/31 01:23:03;;;;;;;0.88;0.70;;;18.60;53.30;;;;;;5019656;28;20539;-63
2023/01/31 01:25:29;;;;;;;1.20;0.70;;;18.50;53.20;;;;;;5021268;28;20026;-63
2023/01/31 01:27:54;;;;;;;1.25;0.73;;;18.50;53.20;;;;;;5019370;28;20033;-63
2023/01/31 01:30:20;;;;;;;1.25;0.70;;;18.60;53.20;;;;;;5033972;28;20018;-64
2023/01/31 01:32:46;;;;;;;1.35;0.80;;;18.60;53.20;;;;;;5018434;28;20533;-64
2023/01/31 01:35:12;;;;;;;1.35;0.80;;;18.60;53.20;;;;;;5015852;28;20036;-63
2023/01/31 01:37:37;;;;;;;1.10;0.70;;;18.60;53.20;;;;;;5017742;28;20033;-63
2023/01/31 01:40:04;;;;;;;1.10;0.80;;;18.50;53.20;;;;;;5020476;28;20034;-64
2023/01/31 01:42:34;;;;;;;1.25;0.80;;;18.50;53.20;;;;;;5017015;28;20065;-63
2023/01/31 01:45:03;;;;;;;0.90;0.60;;;18.60;53.20;;;;;;5016254;28;20054;-63
2023/01/31 01:47:49;;;;;;;0.60;0.50;;;18.50;53.20;;;;;;5022502;28;20038;-63
2023/01/31 01:50:29;;;;;;;1.77;1.08;;;18.50;53.20;;;;;;5021839;28;20451;-63
2023/01/31 01:53:09;;;;;;;0.77;0.60;;;18.50;53.20;;;;;;5024436;28;20026;-64
2023/01/31 01:55:40;;;;;;;1.63;1.05;;;18.60;53.20;;;;;;5022805;28;20022;-63
2023/01/31 01:58:15;;;;;;;1.08;0.70;;;18.50;53.20;;;;;;5016596;28;20101;-63
2023/01/31 02:00:44;;;;;;;0.90;0.77;;;18.50;53.20;;;;;;5021785;28;20022;-63
2023/01/31 02:03:09;;;;;;;1.80;0.70;;;18.50;53.20;;;;;;5021046;28;20053;-63
2023/01/31 02:06:05;;;;;;;0.95;0.70;;;18.50;53.20;;;;;;5022014;28;20092;-63
2023/01/31 02:08:33;;;;;;;1.40;0.65;;;18.50;53.20;;;;;;5022943;28;20044;-64
2023/01/31 02:11:18;;;;;;;1.27;0.80;;;18.50;53.20;;;;;;5018089;28;20046;-63
2023/01/31 02:13:46;;;;;;;1.25;0.80;;;18.50;53.20;;;;;;5022378;28;20472;-63
2023/01/31 02:16:12;;;;;;;0.80;0.50;;;18.50;53.20;;;;;;5017797;28;20037;-64
2023/01/31 02:18:37;;;;;;;1.02;0.63;;;18.50;53.20;;;;;;5023028;28;20543;-63
2023/01/31 02:21:19;;;;;;;0.88;0.70;;;18.50;53.20;;;;;;5021423;28;20531;-63
2023/01/31 02:24:04;;;;;;;1.50;0.80;;;18.50;53.20;;;;;;5022281;28;20029;-62
2023/01/31 02:26:55;;;;;;;1.63;0.80;;;18.50;53.20;;;;;;5021048;28;20034;-63
2023/01/31 02:29:27;;;;;;;0.95;0.65;;;18.50;53.20;;;;;;5021153;28;20436;-64
2023/01/31 02:32:23;;;;;;;1.13;0.73;;;18.50;53.20;;;;;;5017557;28;20053;-63
2023/01/31 02:35:00;;;;;;;1.23;0.68;;;18.50;53.20;;;;;;5019975;28;20108;-62
2023/01/31 02:37:40;;;;;;;0.60;0.57;;;18.50;53.20;;;;;;5021406;28;20061;-62
2023/01/31 02:40:25;;;;;;;1.33;0.73;;;18.50;53.10;;;;;;5017267;28;20469;-63
2023/01/31 02:42:59;;;;;;;0.85;0.60;;;18.50;53.20;;;;;;5016964;28;20504;-62
2023/01/31 02:45:31;;;;;;;0.98;0.70;;;18.50;53.20;;;;;;5021634;28;20029;-63
2023/01/31 02:48:06;;;;;;;1.10;0.80;;;18.40;53.10;;;;;;5017755;28;20037;-63
2023/01/31 02:50:54;;;;;;;1.40;0.80;;;18.50;53.20;;;;;;5018821;28;20125;-63
2023/01/31 02:53:34;;;;;;;0.82;0.70;;;18.40;53.10;;;;;;5021475;28;20498;-64
2023/01/31 02:56:16;;;;;;;1.27;0.70;;;18.40;53.10;;;;;;5023064;28;20033;-63
2023/01/31 02:59:03;;;;;;;0.82;0.70;;;18.40;53.20;;;;;;5023779;28;20396;-62
2023/01/31 03:01:42;;;;;;;0.60;0.60;;;18.40;53.10;;;;;;5021927;28;20029;-63
2023/01/31 03:04:10;;;;;;;0.80;0.70;;;18.40;53.10;;;;;;5020523;28;20049;-63
2023/01/31 03:06:36;;;;;;;0.60;0.60;;;18.40;53.10;;;;;;5019747;28;20042;-62
2023/01/31 03:09:05;;;;;;;0.85;0.60;;;18.40;53.10;;;;;;5021769;28;20182;-62
2023/01/31 03:11:48;;;;;;;1.52;0.70;;;18.40;53.10;;;;;;5017883;28;20025;-63
2023/01/31 03:14:14;;;;;;;1.67;0.70;;;18.40;53.10;;;;;;5020665;28;20120;-63
2023/01/31 03:19:47;;;;;;;1.27;0.80;;;18.40;53.10;;;;;;5022861;28;20076;-62
2023/01/31 03:22:17;;;;;;;0.95;0.60;;;18.40;53.10;;;;;;5017391;28;20034;-63
2023/01/31 03:24:46;;;;;;;1.05;0.70;;;18.40;53.10;;;;;;5020021;28;20022;-62
2023/01/31 03:27:12;;;;;;;0.93;0.65;;;18.40;53.10;;;;;;5019059;28;20203;-62
2023/01/31 03:29:38;;;;;;;1.92;0.80;;;18.40;53.10;;;;;;5020582;28;20033;-63
2023/01/31 03:32:14;;;;;;;1.23;0.70;;;18.40;53.10;;;;;;5020209;28;20040;-64
2023/01/31 03:34:40;;;;;;;1.40;0.73;;;18.40;53.10;;;;;;5019114;28;20524;-62
2023/01/31 03:37:48;;;;;;;1.30;0.80;;;18.40;53.60;;;;;;5021241;28;20034;-63
2023/01/31 03:40:44;;;;;;;1.17;0.70;;;18.40;53.10;;;;;;5021271;28;20025;-62
2023/01/31 03:43:30;;;;;;;1.17;0.68;;;18.40;53.10;;;;;;5003706;28;20046;-63
2023/01/31 03:46:23;;;;;;;0.93;0.60;;;18.40;53.10;;;;;;5021296;28;20033;-64
2023/01/31 03:48:52;;;;;;;1.52;0.80;;;18.40;53.10;;;;;;5018172;28;20485;-63
2023/01/31 03:51:23;;;;;;;0.85;0.70;;;18.40;53.10;;;;;;5019385;28;20083;-63
2023/01/31 03:53:53;;;;;;;0.98;0.70;;;18.40;53.20;;;;;;5018244;28;20500;-63
2023/01/31 03:56:47;;;;;;;1.40;0.80;;;18.40;53.20;;;;;;5033074;28;20041;-63
2023/01/31 03:59:19;;;;;;;0.90;0.60;;;18.30;53.10;;;;;;5016346;28;20135;-63
2023/01/31 04:01:48;;;;;;;0.65;0.60;;;18.30;53.10;;;;;;5023052;28;20041;-63
2023/01/31 04:04:19;;;;;;;1.38;0.70;;;18.30;53.10;;;;;;5018686;28;20468;-63
2023/01/31 04:06:45;;;;;;;0.82;0.65;;;18.30;53.20;;;;;;5018828;28;20037;-62
2023/01/31 04:09:11;;;;;;;1.00;0.70;;;18.30;53.20;;;;;;5017667;28;20115;-61
2023/01/31 04:11:39;;;;;;;1.00;0.70;;;18.30;53.20;;;;;;5017321;28;20030;-63
2023/01/31 04:14:06;;;;;;;1.40;0.70;;;18.30;53.20;;;;;;5017972;28;20029;-62
2023/01/31 04:16:32;;;;;;;1.13;0.70;;;18.30;53.20;;;;;;5017765;28;20125;-63
2023/01/31 04:18:57;;;;;;;0.90;0.60;;;18.30;53.70;;;;;;5018056;28;20108;-63
2023/01/31 04:21:23;;;;;;;1.17;0.70;;;18.30;53.20;;;;;;5019599;28;20048;-63
2023/01/31 04:23:49;;;;;;;1.30;0.80;;;18.30;53.20;;;;;;5020262;28;20421;-63
2023/01/31 04:26:15;;;;;;;1.25;0.60;;;18.30;53.20;;;;;;5015444;28;20021;-63
2023/01/31 04:28:41;;;;;;;0.63;0.60;;;18.30;53.20;;;;;;5018335;28;20115;-63
2023/01/31 04:31:07;;;;;;;1.67;0.80;;;18.30;53.20;;;;;;5017737;28;20030;-63
2023/01/31 04:33:32;;;;;;;0.70;0.50;;;18.30;53.20;;;;;;5019825;28;20021;-62
2023/01/31 04:35:58;;;;;;;0.90;0.50;;;18.30;53.20;;;;;;5018533;28;20473;-63
2023/01/31 04:38:24;;;;;;;1.02;0.60;;;18.30;53.20;;;;;;5019112;28;20030;-63
2023/01/31 04:40:49;;;;;;;0.90;0.60;;;18.30;53.20;;;;;;5016377;28;20528;-63
2023/01/31 04:43:16;;;;;;;0.88;0.60;;;18.30;53.20;;;;;;5018314;28;20041;-63
2023/01/31 04:45:41;;;;;;;2.33;0.80;;;18.30;53.20;;;;;;5019375;28;20505;-63
2023/01/31 04:48:07;;;;;;;1.27;0.70;;;18.30;53.20;;;;;;5018636;28;20147;-64
2023/01/31 04:50:32;;;;;;;0.82;0.50;;;18.30;53.20;;;;;;5018950;28;20061;-63
2023/01/31 04:52:58;;;;;;;0.68;0.57;;;18.30;53.20;;;;;;5021225;28;20036;-63
2023/01/31 04:55:25;;;;;;;0.80;0.70;;;18.30;53.20;;;;;;5020103;28;20044;-63
2023/01/31 04:57:51;;;;;;;0.85;0.60;;;18.30;53.10;;;;;;5015976;28;20033;-63
2023/01/31 05:00:17;;;;;;;1.10;0.60;;;18.30;53.00;;;;;;5017006;28;20029;-63
2023/01/31 05:02:43;;;;;;;0.45;0.43;;;18.40;53.00;;;;;;5018721;28;20473;-62
2023/01/31 05:05:09;;;;;;;0.82;0.60;;;18.40;53.00;;;;;;5018147;28;20041;-62
2023/01/31 05:07:34;;;;;;;0.52;0.50;;;18.40;53.00;;;;;;5019363;28;20520;-63
2023/01/31 05:10:00;;;;;;;0.80;0.52;;;18.40;53.00;;;;;;5020015;28;20033;-63
2023/01/31 05:12:27;;;;;;;0.40;0.40;;;18.30;53.50;;;;;;5017505;28;20137;-63
2023/01/31 05:14:52;;;;;;;0.55;0.50;;;18.40;53.20;;;;;;5020506;28;20060;-63
2023/01/31 05:17:24;;;;;;;1.27;0.70;;;18.40;53.40;;;;;;5019317;28;20038;-63
2023/01/31 05:19:50;;;;;;;0.93;0.68;;;18.40;53.50;;;;;;5020817;28;20485;-63
2023/01/31 05:22:16;;;;;;;0.60;0.60;;;18.40;53.60;;;;;;5022516;28;20033;-63
2023/01/31 05:24:42;;;;;;;0.73;0.57;;;18.40;53.50;;;;;;5023033;28;20105;-63
2023/01/31 05:27:08;;;;;;;0.80;0.63;;;18.40;53.50;;;;;;5022410;28;20061;-63
2023/01/31 05:29:34;;;;;;;0.88;0.63;;;18.40;53.50;;;;;;5021668;28;20371;-64
2023/01/31 05:32:01;;;;;;;0.80;0.60;;;18.40;53.50;;;;;;5023193;28;20113;-62
2023/01/31 05:34:32;;;;;;;0.70;0.52;;;18.40;53.50;;;;;;5023461;28;20381;-63
2023/01/31 05:36:58;;;;;;;0.95;0.80;;;18.40;53.60;;;;;;5021854;28;20026;-62
2023/01/31 05:39:23;;;;;;;1.00;0.60;;;18.40;53.60;;;;;;5020428;28;20511;-63
2023/01/31 05:41:49;;;;;;;1.00;0.70;;;18.40;53.70;;;;;;5025356;28;20033;-63
2023/01/31 05:44:15;;;;;;;0.85;0.60;;;18.40;53.80;;;;;;5020341;28;20033;-62
2023/01/31 05:46:41;;;;;;;1.05;0.70;;;18.40;53.90;;;;;;5022085;28;20060;-63
2023/01/31 05:49:07;;;;;;;0.82;0.65;;;18.40;54.00;;;;;;5020898;28;20064;-63
2023/01/31 05:51:32;;;;;;;0.75;0.50;;;18.50;54.10;;;;;;5022574;28;20053;-63
2023/01/31 05:53:58;;;;;;;1.10;0.63;;;18.50;54.10;;;;;;5021791;28;20463;-62
2023/01/31 05:56:25;;;;;;;3.13;0.60;;;18.50;54.10;;;;;;5020435;28;20037;-63
2023/01/31 05:58:50;;;;;;;1.30;0.70;;;18.50;54.10;;;;;;5022452;28;20087;-63
2023/01/31 06:01:18;;;;;;;0.75;0.60;;;18.50;54.10;;;;;;5018408;28;20845;-64
2023/01/31 06:03:43;;;;;;;0.70;0.60;;;18.50;54.10;;;;;;5021438;28;20395;-64
2023/01/31 06:06:09;;;;;;;1.17;0.70;;;18.50;54.00;;;;;;5020610;28;20396;-65
2023/01/31 06:08:34;;;;;;;1.20;0.60;;;18.50;54.00;;;;;;5021622;28;20029;-64
2023/01/31 06:11:01;;;;;;;1.08;0.63;;;18.50;54.00;;;;;;5021211;28;20026;-64
2023/01/31 06:13:27;;;;;;;1.58;0.60;;;18.50;54.00;;;;;;5022383;28;20063;-64
2023/01/31 06:15:52;;;;;;;1.00;0.57;;;18.50;54.00;;;;;;5022829;28;20104;-63
2023/01/31 06:18:18;;;;;;;0.75;0.60;;;18.60;54.00;;;;;;5020650;28;20033;-64
2023/01/31 06:20:43;;;;;;;0.77;0.52;;;18.50;53.90;;;;;;5018521;28;20030;-64
2023/01/31 06:23:09;;;;;;;1.27;0.70;;;18.50;53.90;;;;;;5023277;28;20732;-64
2023/01/31 06:25:34;;;;;;;0.90;0.63;;;18.50;54.00;;;;;;5017009;28;20362;-63
2023/01/31 06:28:00;;;;;;;1.65;0.60;;;18.50;53.90;;;;;;5020129;28;20053;-64
2023/01/31 06:30:26;;;;;;;1.58;0.73;;;18.50;53.90;;;;;;5022412;28;20030;-64
2023/01/31 06:32:51;;;;;;;2.67;0.80;;;18.50;54.40;;;;;;5025234;28;20593;-64
2023/01/31 06:35:17;;;;;;;1.33;0.70;;;18.50;53.80;;;;;;5021251;28;20022;-64
2023/01/31 06:37:42;;;;;;;1.30;0.80;;;18.50;53.80;;;;;;5019944;28;20030;-64
2023/01/31 06:40:08;;;;;;;1.48;0.80;;;18.50;53.80;;;;;;5021071;28;20033;-64
2023/01/31 06:42:34;;;;;;;1.92;0.88;;;18.60;53.90;;;;;;5021459;28;20025;-65
2023/01/31 06:45:00;;;;;;;1.60;0.80;;;18.50;53.80;;;;;;5023278;28;20032;-64
2023/01/31 06:47:25;;;;;;;1.45;0.73;;;18.50;53.70;;;;;;5021755;28;20044;-64
2023/01/31 06:49:51;;;;;;;2.60;0.80;;;18.50;53.70;;;;;;5018893;28;20458;-64
2023/01/31 06:52:16;;;;;;;0.98;0.57;;;18.60;53.80;;;;;;5020084;28;20326;-65
2023/01/31 06:54:42;;;;;;;1.55;0.70;;;18.50;53.70;;;;;;5020995;28;20026;-64
2023/01/31 06:57:08;;;;;;;1.75;0.90;;;18.50;53.60;;;;;;5019762;28;20618;-64
2023/01/31 06:59:33;;;;;;;1.52;0.80;;;18.50;53.70;;;;;;5019557;28;20429;-64
2023/01/31 07:01:59;;;;;;;1.63;0.85;;;18.50;53.60;;;;;;5021109;28;20029;-65
2023/01/31 07:04:25;;;;;;;1.20;0.73;;;18.50;53.60;;;;;;5020734;28;20112;-64
2023/01/31 07:06:50;;;;;;;1.60;0.88;;;18.60;53.60;;;;;;5023012;28;20540;-65
2023/01/31 07:09:16;;;;;;;1.70;0.75;;;18.50;53.60;;;;;;5020070;28;20045;-64
2023/01/31 07:11:42;;;;;;;1.85;0.88;;;18.50;53.50;;;;;;5023724;28;20051;-64
2023/01/31 07:14:07;;;;;;;2.00;0.88;;;18.50;53.60;;;;;;5022663;28;20075;-65
2023/01/31 07:16:33;;;;;;;2.45;0.80;;;18.50;53.50;;;;;;5019551;28;20038;-64
2023/01/31 07:18:59;;;;;;;2.00;0.90;;;18.60;53.50;;;;;;5018789;28;20080;-63
2023/01/31 07:21:25;;;;;;;1.55;0.90;;;18.50;53.40;;;;;;5018363;28;20041;-64
2023/01/31 07:23:51;;;;;;;1.30;0.70;;;18.50;53.40;;;;;;5016226;28;20079;-64
2023/01/31 07:26:17;;;;;;;1.80;0.70;;;18.60;53.50;;;;;;5020177;28;20104;-63
2023/01/31 07:28:42;;;;;;;1.00;0.77;;;18.60;53.50;;;;;;5027577;28;20033;-64
2023/01/31 07:31:12;;;;;;;1.52;0.70;;;18.60;53.40;;;;;;5018940;28;20025;-64
2023/01/31 07:33:39;;;;;;;1.98;0.90;;;18.60;53.40;;;;;;5019765;28;20029;-64
2023/01/31 07:36:06;;;;;;;1.35;0.85;;;18.50;53.30;;;;;;5028450;28;20037;-63
2023/01/31 07:38:33;;;;;;;1.88;0.93;;;18.60;53.40;;;;;;5018915;28;20029;-63
2023/01/31 07:41:00;;;;;;;1.45;1.02;;;18.60;53.40;;;;;;5020503;28;20029;-63
2023/01/31 07:43:26;;;;;;;1.70;0.80;;;18.60;53.40;;;;;;5018498;28;20057;-64
2023/01/31 07:45:52;;;;;;;1.60;0.80;;;18.50;53.30;;;;;;5019768;28;20043;-65
2023/01/31 07:48:24;;;;;;;1.42;1.00;;;18.50;53.30;;;;;;5018360;28;20029;-64
2023/01/31 07:50:52;;;;;;;1.90;0.98;;;18.50;53.20;;;;;;5020211;28;20071;-64
2023/01/31 07:53:18;;;;;;;0.93;0.68;;;18.60;53.30;;;;;;5020751;28;20492;-64
2023/01/31 07:55:47;;;;;;;1.67;0.82;;;18.50;53.20;;;;;;5017635;28;20029;-64
2023/01/31 07:58:13;;;;;;;0.95;0.70;;;18.60;53.20;;;;;;5018584;28;20032;-64
2023/01/31 08:03:32;;;;;;;0.95;0.80;;;18.50;53.20;;;;;;5020447;28;20076;-64
2023/01/31 08:06:09;;;;;;;2.35;0.80;;;18.50;53.20;;;;;;5019539;28;20064;-63
2023/01/31 08:08:36;;;;;;;1.35;0.80;;;18.50;53.10;;;;;;5033267;28;20030;-63
2023/01/31 08:11:03;;;;;;;1.40;0.77;;;18.50;53.10;;;;;;5016591;28;20057;-64
2023/01/31 08:13:30;;;;;;;1.70;0.90;;;18.60;53.20;;;;;;5020625;28;20052;-63
2023/01/31 08:15:56;;;;;;;1.73;0.80;;;18.50;53.10;;;;;;5018091;28;20032;-64
2023/01/31 08:18:21;;;;;;;1.30;0.70;;;18.50;53.10;;;;;;5019444;28;20022;-63
2023/01/31 08:20:47;;;;;;;1.27;0.65;;;18.60;53.10;;;;;;5031795;28;20144;-64
2023/01/31 08:23:13;;;;;;;1.40;0.60;;;18.50;53.10;;;;;;5018738;28;20388;-64
2023/01/31 08:25:39;;;;;;;1.83;1.00;;;18.50;53.00;;;;;;5020416;28;20112;-64
2023/01/31 08:28:05;;;;;;;1.67;0.90;;;18.50;53.00;;;;;;5019538;28;20117;-64
2023/01/31 08:30:30;;;;;;;1.98;1.00;;;18.50;53.00;;;;;;5018007;28;20037;-64
2023/01/31 08:32:56;;;;;;;1.42;0.70;;;18.50;53.00;;;;;;5018137;28;20018;-65
2023/01/31 08:35:22;;;;;;;1.38;0.80;;;18.50;53.00;;;;;;5019829;28;20106;-64
2023/01/31 08:37:47;;;;;;;1.25;0.80;;;18.60;53.00;;;;;;5018841;28;20029;-64
2023/01/31 08:40:13;;;;;;;1.33;0.75;;;18.50;53.00;;;;;;5021839;28;20021;-64
2023/01/31 08:42:39;;;;;;;1.40;0.73;;;18.50;53.00;;;;;;5018806;28;20120;-65
2023/01/31 08:45:06;;;;;;;1.33;0.80;;;18.50;53.00;;;;;;5017741;28;20065;-64
2023/01/31 08:47:32;;;;;;;1.48;0.80;;;18.50;53.00;;;;;;5017036;28;20034;-64
2023/01/31 08:49:57;;;;;;;0.88;0.70;;;18.50;52.90;;;;;;5018704;28;20064;-64
2023/01/31 08:52:23;;;;;;;1.67;0.70;;;18.50;52.90;;;;;;5021730;28;20073;-64
2023/01/31 08:54:48;;;;;;;1.10;0.70;;;18.50;52.90;;;;;;5022400;28;20379;-64
2023/01/31 08:57:14;;;;;;;0.88;0.65;;;18.50;52.90;;;;;;5024645;28;20488;-64
2023/01/31 08:59:39;;;;;;;0.90;0.68;;;18.50;52.90;;;;;;5020247;28;20026;-64
2023/01/31 09:02:05;;;;;;;1.45;0.80;;;18.50;52.90;;;;;;5022470;28;20025;-64
2023/01/31 09:04:31;;;;;;;1.20;0.80;;;18.50;52.90;;;;;;5025908;28;20058;-64
2023/01/31 09:06:56;;;;;;;1.70;0.80;;;18.50;52.90;;;;;;5023521;28;20026;-65
2023/01/31 09:09:24;;;;;;;3.80;0.85;;;18.50;53.30;;;;;;5021619;28;20523;-64
2023/01/31 09:11:49;;;;;;;1.30;0.77;;;18.50;52.90;;;;;;5021430;28;20100;-64
2023/01/31 09:14:15;;;;;;;1.88;0.90;;;18.50;52.80;;;;;;5022691;28;20125;-64
2023/01/31 09:16:41;;;;;;;1.73;0.90;;;18.50;52.80;;;;;;5023399;28;20465;-64
2023/01/31 09:19:06;;;;;;;1.70;1.00;;;18.50;52.80;;;;;;5023569;28;20026;-63
2023/01/31 09:21:32;;;;;;;1.02;0.77;;;18.50;52.80;;;;;;5021778;28;20084;-64
2023/01/31 09:24:01;;;;;;;1.17;0.77;;;18.50;52.70;;;;;;5023361;28;20029;-64
2023/01/31 09:26:27;;;;;;;1.40;0.80;;;18.50;52.70;;;;;;5025500;28;20026;-65
2023/01/31 09:28:53;;;;;;;1.40;0.80;;;18.50;52.70;;;;;;5023724;28;20465;-64
2023/01/31 09:31:20;;;;;;;1.45;0.70;;;18.50;52.70;;;;;;5022770;28;20032;-64
2023/01/31 09:33:46;;;;;;;2.08;0.88;;;18.50;52.70;;;;;;5022847;28;20040;-63
2023/01/31 09:36:14;;;;;;;1.85;0.98;;;18.50;52.70;;;;;;5024274;28;20092;-66
2023/01/31 09:38:40;;;;;;;1.10;0.70;;;18.50;52.70;;;;;;5031435;28;20342;-64
2023/01/31 09:41:23;;;;;;;1.70;0.82;;;18.50;52.70;;;;;;5018257;28;20037;-64
2023/01/31 09:43:55;;;;;;;1.42;0.75;;;18.50;52.70;;;;;;5023148;28;20030;-64
2023/01/31 09:46:26;;;;;;;1.38;0.75;;;18.50;52.70;;;;;;5022935;28;20407;-64
2023/01/31 09:48:54;;;;;;;1.58;0.80;;;18.50;52.60;;;;;;5022564;28;20013;-64
2023/01/31 09:51:21;;;;;;;1.52;0.70;;;18.50;52.70;;;;;;5019510;28;20117;-64
2023/01/31 09:53:47;;;;;;;1.55;0.85;;;18.50;52.60;;;;;;5020740;28;20392;-64
2023/01/31 09:56:39;;;;;;;1.65;0.75;;;18.50;52.60;;;;;;5021289;28;20044;-64
2023/01/31 09:59:18;;;;;;;1.40;0.70;;;18.50;52.60;;;;;;5019603;28;20030;-65
2023/01/31 10:01:52;;;;;;;1.60;0.80;;;18.50;52.60;;;;;;5019856;28;20034;-64
2023/01/31 10:04:17;;;;;;;1.33;0.80;;;18.50;52.60;;;;;;5022293;28;20034;-64
2023/01/31 10:06:52;;;;;;;1.48;0.70;;;18.50;52.60;;;;;;5020754;28;20034;-64
2023/01/31 10:09:24;;;;;;;1.45;0.80;;;18.50;52.60;;;;;;5022350;28;20022;-63
2023/01/31 10:12:05;;;;;;;1.33;0.80;;;18.50;52.60;;;;;;5021560;28;20108;-64
2023/01/31 10:14:33;;;;;;;1.20;0.70;;;18.50;52.50;;;;;;5019613;28;20021;-64
2023/01/31 10:17:30;;;;;;;1.70;1.00;;;18.50;52.50;;;;;;5020039;28;20330;-64
2023/01/31 10:20:07;;;;;;;1.67;0.77;;;18.50;52.50;;;;;;5021590;28;20026;-64
2023/01/31 10:22:53;;;;;;;1.77;0.77;;;18.50;52.50;;;;;;5020319;28;20030;-64
2023/01/31 10:25:18;;;;;;;1.50;0.70;;;18.50;52.50;;;;;;5023641;28;20030;-63
2023/01/31 10:27:49;;;;;;;1.25;0.77;;;18.50;52.50;;;;;;5025653;28;20032;-64
2023/01/31 10:30:22;;;;;;;1.95;0.95;;;18.50;52.50;;;;;;5022349;28;20473;-63
2023/01/31 10:33:02;;;;;;;1.80;0.90;;;18.50;52.40;;;;;;5022588;28;20025;-65
2023/01/31 10:35:30;;;;;;;;;;;18.50;52.50;;;;;;5021937;28;20017;-65
2023/01/31 10:38:04;;;;;;;1.67;0.80;;;18.50;52.40;;;;;;5023817;28;19941;-63
2023/01/31 10:40:36;;;;;;;1.75;0.75;;;18.50;52.40;;;;;;5024376;28;20022;-65
2023/01/31 10:43:33;;;;;;;1.67;0.80;;;18.50;52.40;;;;;;5022519;28;20034;-63
2023/01/31 10:46:00;;;;;;;0.93;0.70;;;18.50;52.40;;;;;;5010591;28;20042;-64
2023/01/31 10:48:28;;;;;;;1.55;0.80;;;18.50;52.40;;;;;;5019336;28;20040;-64
2023/01/31 10:51:13;;;;;;;0.90;0.68;;;18.50;52.40;;;;;;5021077;28;20025;-65
2023/01/31 10:53:47;;;;;;;1.30;0.80;;;18.50;52.40;;;;;;5019910;28;20388;-64
2023/01/31 10:56:26;;;;;;;1.25;0.70;;;18.50;52.40;;;;;;5019272;28;20175;-65
2023/01/31 10:58:53;;;;;;;1.70;0.90;;;18.50;52.40;;;;;;5019770;28;20516;-64
2023/01/31 11:01:19;;;;;;;1.17;0.70;;;18.50;52.40;;;;;;5021266;28;20558;-64
2023/01/31 11:03:50;;;;;;;1.38;0.77;;;18.50;52.40;;;;;;5020156;28;20033;-64
2023/01/31 11:06:17;;;;;;;1.25;0.80;;;18.50;52.40;;;;;;5019150;28;20450;-64
2023/01/31 11:08:50;;;;;;;1.48;0.80;;;18.40;52.80;;;;;;5018659;28;20046;-64
2023/01/31 11:11:19;;;;;;;1.83;0.88;;;18.50;52.40;;;;;;5018911;28;20029;-64
2023/01/31 11:14:03;;;;;;;1.38;0.80;;;18.40;52.30;;;;;;5021628;28;20102;-65
2023/01/31 11:16:38;;;;;;;1.10;0.80;;;18.40;52.30;;;;;;5017513;28;20033;-64
2023/01/31 11:19:26;;;;;;;1.33;0.60;;;18.40;52.30;;;;;;5023003;28;20124;-66
2023/01/31 11:21:53;;;;;;;1.15;0.70;;;18.50;52.30;;;;;;5018818;28;20168;-64
2023/01/31 11:24:27;;;;;;;1.10;0.70;;;18.40;52.30;;;;;;5019688;28;20441;-64
2023/01/31 11:26:58;;;;;;;1.13;0.70;;;18.40;52.20;;;;;;5021130;28;20057;-64
2023/01/31 11:29:32;;;;;;;1.90;0.70;;;18.50;52.30;;;;;;5017079;28;20137;-65
2023/01/31 11:32:00;;;;;;;1.38;0.77;;;18.40;52.20;;;;;;5022153;28;20025;-64
2023/01/31 11:34:32;;;;;;;1.05;0.70;;;18.40;52.20;;;;;;5019300;28;20445;-64
2023/01/31 11:37:16;;;;;;;0.88;0.60;;;18.50;52.30;;;;;;5018462;28;20117;-65
2023/01/31 11:39:52;;;;;;;1.45;0.77;;;18.40;52.20;;;;;;5020158;28;20075;-64
2023/01/31 11:42:18;;;;;;;1.52;0.73;;;18.50;52.30;;;;;;5021168;28;20037;-64
2023/01/31 11:44:54;;;;;;;1.35;0.70;;;18.40;52.20;;;;;;5021658;28;20358;-64
2023/01/31 11:47:24;;;;;;;1.58;0.80;;;18.50;52.20;;;;;;5021126;28;20500;-65
2023/01/31 11:49:50;;;;;;;1.83;0.90;;;18.40;52.20;;;;;;5019974;28;20514;-64
2023/01/31 11:52:20;;;;;;;1.15;0.77;;;18.40;52.20;;;;;;5021807;28;20030;-64
2023/01/31 11:54:53;;;;;;;1.55;0.82;;;18.40;52.10;;;;;;5027230;28;20089;-64
2023/01/31 11:57:27;;;;;;;1.60;0.70;;;18.40;52.10;;;;;;5019532;28;20025;-63
2023/01/31 11:59:56;;;;;;;1.10;0.68;;;18.40;52.20;;;;;;5021338;28;20037;-65
2023/01/31 12:02:31;;;;;;;1.97;0.97;;;18.40;52.10;;;;;;5020541;28;20510;-64
2023/01/31 12:04:57;;;;;;;1.73;1.00;;;18.50;52.20;;;;;;5022850;28;20414;-65
2023/01/31 12:07:30;;;;;;;1.33;0.85;;;18.40;52.60;;;;;;5021747;28;20385;-63
2023/01/31 12:09:56;;;;;;;1.58;0.80;;;18.40;52.10;;;;;;5020883;28;20025;-64
2023/01/31 12:12:34;;;;;;;1.08;0.70;;;18.40;52.10;;;;;;5020658;28;20076;-64
2023/01/31 12:15:12;;;;;;;1.85;0.90;;;18.40;52.10;;;;;;5018087;28;20397;-64
2023/01/31 12:17:44;;;;;;;1.48;0.70;;;18.40;52.10;;;;;;5020728;28;20530;-64
2023/01/31 12:20:19;;;;;;;1.40;0.77;;;18.40;52.10;;;;;;5022000;28;20041;-64
2023/01/31 12:23:22;;;;;;;1.38;0.70;;;18.40;52.10;;;;;;5018344;28;20120;-64
2023/01/31 12:26:00;;;;;;;1.48;0.63;;;18.50;52.10;;;;;;5016975;28;20099;-64
2023/01/31 12:28:55;;;;;;;1.45;0.70;;;18.40;52.10;;;;;;5020088;28;20025;-64
2023/01/31 12:31:38;;;;;;;2.20;0.90;;;18.40;52.00;;;;;;5021438;28;20056;-63
2023/01/31 12:34:37;;;;;;;1.33;0.80;;;18.40;52.10;;;;;;5016849;28;20376;-64
2023/01/31 12:37:33;;;;;;;1.83;0.80;;;18.40;52.10;;;;;;5018830;28;20033;-64
2023/01/31 12:40:20;;;;;;;1.27;0.80;;;18.40;52.10;;;;;;5018398;28;20029;-64
2023/01/31 12:43:02;;;;;;;1.35;0.70;;;18.40;52.10;;;;;;5020989;28;20026;-64
2023/01/31 12:45:42;;;;;;;2.28;0.82;;;18.40;52.10;;;;;;5019294;28;20189;-64
2023/01/31 12:48:28;;;;;;;1.42;0.80;;;18.40;52.10;;;;;;5014486;28;20065;-65
2023/01/31 12:51:09;;;;;;;1.50;0.80;;;18.40;52.60;;;;;;5016307;28;20048;-65
2023/01/31 12:53:43;;;;;;;2.45;1.17;;;18.40;52.10;;;;;;5014565;28;20437;-64
2023/01/31 12:56:39;;;;;;;1.70;0.80;;;18.40;52.10;;;;;;5019268;28;20524;-64
2023/01/31 12:59:20;;;;;;;1.33;0.70;;;18.40;52.10;;;;;;5021327;28;20031;-66
2023/01/31 13:01:48;;;;;;;1.50;0.80;;;18.50;52.10;;;;;;5017506;28;20030;-64
2023/01/31 13:04:17;;;;;;;1.30;0.90;;;18.50;52.10;;;;;;5018669;28;20042;-65
2023/01/31 13:06:47;;;;;;;1.20;0.70;;;18.50;52.10;;;;;;5020131;28;20029;-65
2023/01/31 13:09:37;;;;;;;2.08;0.80;;;18.50;52.10;;;;;;5017786;28;20619;-65
2023/01/31 13:12:12;;;;;;;3.97;1.20;;;18.40;52.30;;;;;;5018804;28;20389;-64